Date,TemperatureHighF,TemperatureAvgF,TemperatureLowF,DewpointHighF,DewpointAvgF,DewpointLowF,HumidityHigh,HumidityAvg,HumidityLow,PressureMaxIn,PressureMinIn,WindSpeedMaxMPH,WindSpeedAvgMPH,GustSpeedMaxMPH,PrecipitationSumIn
2013-1-1,34,26,14,12,0,-12,45,32,21,0.00,40.00,6,2,21,0.00
2013-1-2,24,14,3,-6,-11,-21,44,32,22,0.00,40.00,6,2,12,0.00
2013-1-3,20,7,-3,-12,-18,-22,43,32,18,0.00,40.00,5,1,11,0.00
2013-1-4,36,23,3,10,0,-15,46,37,25,0.00,40.00,5,1,12,0.00
2013-1-5,35,31,24,10,6,-2,47,35,20,0.00,40.00,7,2,19,0.00
2013-1-6,39,31,27,10,-4,-16,36,23,14,0.00,40.00,4,0,8,0.00
2013-1-7,36,26,15,10,1,-16,42,33,14,0.00,40.00,4,0,9,0.00
2013-1-8,43,26,14,11,3,-7,47,37,19,0.00,40.00,6,1,13,0.00
2013-1-9,40,31,18,19,10,0,48,41,26,0.00,40.00,5,0,14,0.07
2013-1-10,42,39,36,11,4,-1,32,23,17,0.00,40.00,8,4,26,0.06
2013-1-12,40,37,34,16,11,0,41,35,17,0.00,40.00,2,0,6,0.25
2013-1-13,36,35,34,7,6,6,29,29,29,0.00,40.00,1,0,3,0.00
2013-1-14,44,39,38,18,13,8,39,33,25,0.00,40.00,4,1,17,0.01
2013-1-15,39,37,28,16,14,6,39,39,39,0.00,40.00,3,0,6,0.00
2013-1-16,29,29,28,7,7,6,39,39,39,0.00,40.00,0,0,0,0.00
2013-1-17,38,32,26,34,17,-13,87,61,17,0.00,40.00,3,0,10,0.00
2013-1-18,34,34,34,30,30,30,86,86,86,0.00,40.00,7,1,14,0.00
2013-1-19,34,34,34,30,30,30,86,86,86,0.00,40.00,6,1,19,0.02
2013-1-20,34,34,34,30,30,30,86,86,86,0.00,40.00,8,3,26,0.20
2013-1-21,34,34,34,30,30,30,86,86,86,0.00,40.00,6,1,14,0.00
2013-1-22,34,34,34,30,30,30,86,86,86,0.00,40.00,6,1,21,0.00
2013-1-23,34,34,34,30,30,30,86,86,86,0.00,40.00,3,0,11,0.00
2013-1-24,34,34,34,30,30,30,86,86,86,0.00,40.00,4,0,20,0.00
2013-1-25,34,34,34,30,30,30,86,86,86,0.00,40.00,5,1,16,0.00
2013-1-26,34,34,34,30,30,30,86,86,86,0.00,40.00,8,1,16,0.00
2013-1-27,34,34,34,30,30,30,86,86,86,0.00,40.00,6,2,18,0.00
2013-1-28,34,34,34,30,30,30,86,86,86,0.00,40.00,2,0,7,0.00
2013-1-29,34,34,34,30,30,30,86,86,86,0.00,40.00,0,0,0,0.00
2013-1-30,34,34,34,30,30,30,86,86,86,0.00,40.00,2,0,11,0.46
2013-1-31,34,34,34,30,30,30,86,86,86,0.00,40.00,10,3,34,0.40
2013-2-8,18,16,14,8,0,-41,69,55,6,0.00,40.00,9,6,23,0.00
2013-2-9,22,17,12,15,8,-39,75,66,7,0.00,40.00,7,3,21,0.00
2013-2-10,35,20,7,4,-3,-36,63,39,5,0.00,40.00,4,1,17,0.00
2013-2-11,32,23,11,26,15,0,81,69,58,0.00,40.00,1,0,5,0.00
2013-2-12,42,36,29,27,22,16,78,59,36,0.00,40.00,6,2,16,0.47
2013-2-13,41,32,25,29,9,-33,97,51,6,0.00,40.00,4,1,11,0.01
2013-2-14,43,31,24,25,0,-51,97,38,2,0.00,40.00,5,0,10,0.00
2013-2-15,50,33,19,31,-3,-59,100,38,1,0.00,40.00,5,0,17,0.00
2013-2-16,40,33,28,15,-6,-72,44,21,1,0.00,40.00,2,0,10,0.04
2013-2-17,29,20,14,-1,-20,-50,40,17,3,0.00,40.00,8,3,24,0.00
2013-2-18,30,20,12,-6,-22,-43,23,15,5,0.00,40.00,10,4,27,0.00
2013-2-19,42,30,18,7,-12,-50,27,16,3,0.00,40.00,5,1,12,0.30
2013-2-20,36,31,24,33,-7,-32,95,20,6,0.00,40.00,8,3,21,0.00
2013-2-21,29,24,21,-3,-21,-44,26,14,3,0.00,40.00,8,2,21,0.00
2013-2-22,41,29,18,6,-19,-70,34,15,1,0.00,40.00,5,1,13,0.00
2013-2-23,37,32,27,28,4,-38,94,38,3,0.00,40.00,4,0,11,0.00
2013-2-24,33,32,31,17,14,-3,51,49,23,0.00,40.00,3,0,8,0.11
2013-2-25,32,32,32,16,16,16,51,51,51,0.00,40.00,1,0,3,0.10
2013-2-26,32,32,32,16,16,16,51,51,51,0.00,40.00,4,0,9,0.29
2013-2-27,32,32,32,16,16,16,51,51,51,0.00,40.00,9,3,26,0.61
2013-2-28,32,32,32,16,16,16,51,51,51,0.00,40.00,3,1,7,0.35
2013-3-1,32,32,32,16,16,16,51,51,51,0.00,40.00,3,0,8,0.00
2013-3-2,32,32,32,16,16,16,51,51,51,0.00,40.00,4,1,11,0.00
2013-3-3,32,32,32,16,16,16,51,51,51,0.00,40.00,4,1,9,0.00
2013-3-4,32,32,32,16,16,16,51,51,51,0.00,40.00,6,2,16,0.03
2013-3-5,32,32,32,16,16,16,51,51,51,0.00,40.00,4,1,10,0.03
2013-3-6,32,32,32,16,16,16,51,51,51,0.00,40.00,8,4,22,0.13
2013-3-7,32,32,32,16,16,16,51,51,51,0.00,40.00,9,4,22,0.00
2013-3-8,32,32,32,16,16,16,51,51,51,0.00,40.00,6,3,15,0.10
2013-3-9,32,32,32,16,16,16,51,51,51,0.00,40.00,6,1,12,0.09
2013-3-10,32,32,32,16,16,16,51,51,51,0.00,40.00,5,1,10,0.01
2013-3-11,32,32,32,16,16,16,51,51,51,0.00,40.00,5,1,11,0.00
2013-3-12,32,32,32,16,16,16,51,51,51,0.00,40.00,4,1,13,0.31
2013-3-13,32,32,32,16,16,16,51,51,51,0.00,40.00,7,1,14,0.00
2013-3-14,32,32,32,16,16,16,51,51,51,0.00,40.00,8,2,16,0.00
2013-3-15,32,32,32,16,16,16,51,51,51,0.00,40.00,7,2,16,0.00
2013-3-16,32,32,32,16,16,16,51,51,51,0.00,40.00,5,1,16,0.00
2013-3-17,32,32,32,16,16,16,51,51,51,0.00,40.00,6,1,18,0.00
2013-3-18,32,32,32,16,16,16,51,51,51,0.00,40.00,5,1,12,0.00
2013-3-19,32,32,32,16,16,16,51,51,51,0.00,40.00,3,0,8,0.00
2013-3-20,32,32,32,16,16,16,51,51,51,0.00,40.00,0,0,0,0.00
2013-3-21,32,32,32,16,16,16,51,51,51,0.00,40.00,4,0,12,0.10
2013-3-22,32,32,32,16,16,16,51,51,51,0.00,40.00,5,1,14,0.13
2013-3-23,32,32,32,16,16,16,51,51,51,0.00,40.00,9,2,22,0.04
2013-3-24,32,32,32,16,16,16,51,51,51,0.00,40.00,6,1,15,0.00
2013-3-25,32,32,32,16,16,16,51,51,51,0.00,40.00,7,2,19,0.00
2013-3-26,32,32,32,16,16,16,51,51,51,0.00,40.00,5,1,14,0.00
2013-3-27,32,32,32,16,16,16,51,51,51,0.00,40.00,5,2,14,0.00
2013-5-16,32,32,32,16,16,16,51,51,51,0.00,40.00,6,2,26,0.00
2013-5-17,32,32,32,16,16,16,51,51,51,0.00,40.00,6,1,16,0.00
2013-5-18,32,32,32,16,16,16,51,51,51,0.00,40.00,6,1,14,0.00
2013-5-19,32,32,32,16,16,16,51,51,51,0.00,40.00,4,0,10,0.06
2013-5-20,32,32,32,16,16,16,51,51,51,0.00,40.00,3,0,8,0.09
2013-5-21,32,32,32,16,16,16,51,51,51,0.00,40.00,5,1,12,0.05
2013-5-22,32,32,32,16,16,16,51,51,51,0.00,40.00,3,0,8,1.39
2013-5-23,32,32,32,16,16,16,51,51,51,0.00,40.00,1,0,11,0.38
2013-5-24,32,32,32,16,16,16,51,51,51,0.00,40.00,2,0,9,1.30
2013-5-25,32,32,32,16,16,16,51,51,51,0.00,40.00,3,0,12,0.80
2013-5-26,32,32,32,16,16,16,51,51,51,0.00,40.00,6,2,16,0.20
2013-5-27,32,32,32,16,16,16,51,51,51,0.00,40.00,5,1,15,0.00
2013-5-28,32,32,32,16,16,16,51,51,51,0.00,40.00,4,1,13,0.00
2013-5-29,32,32,32,16,16,16,51,51,51,0.00,40.00,0,0,5,0.26
2013-5-30,32,32,32,16,16,16,51,51,51,0.00,40.00,3,0,12,0.01
2013-5-31,32,32,32,16,16,16,51,51,51,0.00,40.00,3,0,10,0.00
2013-6-1,32,32,32,16,16,16,51,51,51,0.00,40.00,3,0,11,0.00
2013-6-2,32,32,32,16,16,16,51,51,51,0.00,40.00,4,0,17,0.21
2013-6-3,32,32,32,16,16,16,51,51,51,0.00,40.00,2,0,11,0.16
2013-6-4,32,32,32,16,16,16,51,51,51,0.00,40.00,4,1,18,0.00
2013-6-5,32,32,32,16,16,16,51,51,51,0.00,40.00,3,0,10,0.00
2013-6-6,32,32,32,16,16,16,51,51,51,0.00,40.00,4,0,10,0.00
2013-6-7,32,32,32,16,16,16,51,51,51,0.00,40.00,2,0,8,1.25
2013-6-8,32,32,32,16,16,16,51,51,51,0.00,40.00,5,0,14,0.76
2013-6-9,32,32,32,16,16,16,51,51,51,0.00,40.00,3,0,21,0.00
2013-6-10,32,32,32,16,16,16,51,51,51,0.00,40.00,3,0,9,0.25
2013-6-11,32,32,32,16,16,16,51,51,51,0.00,40.00,4,0,13,1.21
2013-6-12,32,32,32,16,16,16,51,51,51,0.00,40.00,4,0,10,0.02
2013-6-13,32,32,32,16,16,16,51,51,51,0.00,40.00,2,0,6,0.20
2013-6-14,32,32,32,16,16,16,51,51,51,0.00,40.00,1,0,4,0.43
2013-6-15,32,32,32,16,16,16,51,51,51,0.00,40.00,4,0,14,0.00
2013-6-16,32,32,32,16,16,16,51,51,51,0.00,40.00,1,0,9,0.00
2013-6-17,32,32,32,16,16,16,51,51,51,0.00,40.00,2,0,12,0.26
2013-6-18,32,32,32,16,16,16,51,51,51,0.00,40.00,0,0,4,0.05
2013-6-19,32,32,32,16,16,16,51,51,51,0.00,40.00,4,0,8,0.00
2013-6-20,32,32,32,16,16,16,51,51,51,0.00,40.00,2,0,9,0.00
2013-6-21,32,32,32,16,16,16,51,51,51,0.00,40.00,1,0,6,0.00
2013-6-22,32,32,32,16,16,16,51,51,51,0.00,40.00,2,0,11,0.00
2013-6-23,32,32,32,16,16,16,51,51,51,0.00,40.00,2,0,8,0.02
2013-6-24,32,32,32,16,16,16,51,51,51,0.00,40.00,3,0,10,0.08
2013-6-25,32,32,32,16,16,16,51,51,51,0.00,40.00,1,0,8,0.00
2013-6-26,32,32,32,16,16,16,51,51,51,0.00,40.00,0,0,2,0.00
2013-6-27,32,32,32,16,16,16,51,51,51,0.00,40.00,0,0,1,0.00
2013-6-28,32,32,32,16,16,16,51,51,51,0.00,40.00,0,0,0,0.00
2013-6-29,32,32,32,16,16,16,51,51,51,0.00,40.00,0,0,0,0.00
2013-6-30,32,32,32,16,16,16,51,51,51,0.00,40.00,0,0,0,0.00
2013-7-1,32,32,32,16,16,16,51,51,51,0.00,40.00,0,0,0,0.00
2013-7-2,32,32,32,16,16,16,51,51,51,0.00,40.00,0,0,0,0.00
2013-7-3,32,32,32,16,16,16,51,51,51,0.00,40.00,0,0,0,0.00
2013-7-4,32,32,32,16,16,16,51,51,51,0.00,40.00,0,0,0,0.00
2013-7-5,32,32,32,16,16,16,51,51,51,0.00,40.00,0,0,0,0.00
2013-7-6,32,32,32,16,16,16,51,51,51,0.00,40.00,0,0,0,0.00
2013-7-7,32,32,32,16,16,16,51,51,51,0.00,40.00,0,0,0,0.00
2013-7-8,32,32,32,16,16,16,51,51,51,0.00,40.00,0,0,0,0.00
2013-7-9,32,32,32,16,16,16,51,51,51,0.00,40.00,0,0,0,0.00
2013-7-10,32,32,32,16,16,16,51,51,51,0.00,40.00,0,0,0,0.00
2013-7-11,32,32,32,16,16,16,51,51,51,0.00,40.00,0,0,0,0.00
2013-7-12,32,32,32,16,16,16,51,51,51,0.00,40.00,0,0,0,0.00
2013-7-13,32,32,32,16,16,16,51,51,51,0.00,40.00,0,0,0,0.00
2013-7-14,32,32,32,16,16,16,51,51,51,0.00,40.00,0,0,0,0.00
2013-7-15,32,32,32,16,16,16,51,51,51,0.00,40.00,0,0,0,0.00
2013-7-16,32,32,32,16,16,16,51,51,51,0.00,40.00,0,0,0,0.00
2013-7-17,32,32,32,16,16,16,51,51,51,0.00,40.00,0,0,0,0.00
2013-7-18,32,32,32,16,16,16,51,51,51,0.00,40.00,0,0,0,0.00
2013-7-19,32,32,32,16,16,16,51,51,51,0.00,40.00,0,0,0,0.00
2013-7-20,32,32,32,16,16,16,51,51,51,0.00,40.00,0,0,0,0.00
2013-7-21,32,32,32,16,16,16,51,51,51,0.00,40.00,0,0,0,0.00
2013-7-22,32,32,32,16,16,16,51,51,51,0.00,40.00,0,0,0,0.00
2013-7-23,32,32,32,16,16,16,51,51,51,0.00,40.00,0,0,0,0.00
2013-7-25,32,32,32,16,16,16,51,51,51,0.00,40.00,0,0,0,0.00
2013-7-26,32,32,32,16,16,16,51,51,51,0.00,40.00,0,0,0,0.00
2013-7-27,32,32,32,16,16,16,51,51,51,0.00,40.00,0,0,0,0.00
2013-7-28,32,32,32,16,16,16,51,51,51,0.00,40.00,0,0,0,0.00
2013-7-29,32,32,32,16,16,16,51,51,51,0.00,40.00,0,0,0,0.00
2013-7-30,32,32,32,16,16,16,51,51,51,0.00,40.00,0,0,0,0.00
2013-7-31,32,32,32,16,16,16,51,51,51,0.00,40.00,0,0,0,0.00
2013-8-1,32,32,32,16,16,16,51,51,51,0.00,40.00,0,0,0,0.00
2013-8-2,32,32,32,16,16,16,51,51,51,0.00,40.00,0,0,0,0.00
2013-8-3,32,32,32,16,16,16,51,51,51,0.00,40.00,0,0,0,0.00
2013-8-4,32,32,32,16,16,16,51,51,51,0.00,40.00,0,0,0,0.00
2013-8-5,32,32,32,16,16,16,51,51,51,0.00,40.00,0,0,0,0.00
2013-8-6,32,32,32,16,16,16,51,51,51,0.00,40.00,0,0,0,0.00
2013-8-7,32,32,32,16,16,16,51,51,51,0.00,40.00,0,0,0,0.00
2013-8-8,32,32,32,16,16,16,51,51,51,0.00,40.00,0,0,0,0.00
2013-8-9,32,32,32,16,16,16,51,51,51,0.00,40.00,0,0,0,0.00
2013-8-10,32,32,32,16,16,16,51,51,51,0.00,40.00,0,0,0,0.00
2013-8-11,32,32,32,16,16,16,51,51,51,0.00,40.00,0,0,0,0.00
2013-8-12,32,32,32,16,16,16,51,51,51,0.00,40.00,0,0,0,0.00
2013-8-13,32,32,32,16,16,16,51,51,51,0.00,40.00,0,0,0,0.00
2013-8-14,32,32,32,16,16,16,51,51,51,0.00,40.00,0,0,0,0.00
2013-8-15,32,32,32,16,16,16,51,51,51,0.00,40.00,0,0,0,0.00
2013-8-16,32,32,32,16,16,16,51,51,51,0.00,40.00,0,0,0,0.00
2013-8-17,32,32,32,16,16,16,51,51,51,0.00,40.00,0,0,0,0.00
2013-8-18,32,32,32,16,16,16,51,51,51,0.00,40.00,0,0,0,0.00
2013-8-19,32,32,32,16,16,16,51,51,51,0.00,40.00,0,0,0,0.00
2013-8-20,32,32,32,16,16,16,51,51,51,0.00,40.00,0,0,0,0.00
2013-8-21,32,32,32,16,16,16,51,51,51,0.00,40.00,0,0,0,0.00
2013-8-22,32,32,32,16,16,16,51,51,51,0.00,40.00,0,0,0,0.00
2013-8-23,32,32,32,16,16,16,51,51,51,0.00,40.00,0,0,0,0.00
2013-8-24,32,32,32,16,16,16,51,51,51,0.00,40.00,0,0,0,0.00
2013-8-25,32,32,32,16,16,16,51,51,51,0.00,40.00,0,0,0,0.00
2013-8-26,32,32,32,16,16,16,51,51,51,0.00,40.00,0,0,0,0.00
2013-8-27,32,32,32,16,16,16,51,51,51,0.00,40.00,0,0,0,0.00
2013-8-28,32,32,32,16,16,16,51,51,51,0.00,40.00,0,0,0,0.00
2013-8-29,32,32,32,16,16,16,51,51,51,0.00,40.00,0,0,0,0.00
2013-8-30,32,32,32,16,16,16,51,51,51,0.00,40.00,0,0,0,0.00
2013-8-31,32,32,32,16,16,16,51,51,51,0.00,40.00,0,0,0,0.00
2013-9-1,32,32,32,16,16,16,51,51,51,0.00,40.00,0,0,0,0.00
2013-9-2,32,32,32,16,16,16,51,51,51,0.00,40.00,0,0,0,0.00
2013-9-3,32,32,32,16,16,16,51,51,51,0.00,40.00,0,0,0,0.00
2013-9-4,32,32,32,16,16,16,51,51,51,0.00,40.00,0,0,0,0.00
2013-9-5,32,32,32,16,16,16,51,51,51,0.00,40.00,0,0,0,0.00
2013-9-6,32,32,32,16,16,16,51,51,51,0.00,40.00,0,0,0,0.00
2013-9-7,32,32,32,16,16,16,51,51,51,0.00,40.00,0,0,0,0.00
2013-9-8,32,32,32,16,16,16,51,51,51,0.00,40.00,0,0,0,0.00
2013-9-9,32,32,32,16,16,16,51,51,51,0.00,40.00,0,0,0,0.00
2013-9-10,32,32,32,16,16,16,51,51,51,0.00,40.00,0,0,0,0.00
2013-9-11,32,32,32,16,16,16,51,51,51,0.00,40.00,0,0,0,0.00
2013-9-12,32,32,32,16,16,16,51,51,51,0.00,40.00,0,0,0,0.00
2013-9-13,32,32,32,16,16,16,51,51,51,0.00,40.00,0,0,0,0.00
2013-9-14,32,32,32,16,16,16,51,51,51,0.00,40.00,0,0,0,0.00
2013-9-15,32,32,32,16,16,16,51,51,51,0.00,40.00,0,0,0,0.00
2013-9-16,32,32,32,16,16,16,51,51,51,0.00,40.00,0,0,0,0.00
2013-9-17,32,32,32,16,16,16,51,51,51,0.00,40.00,0,0,0,0.00
2013-9-18,32,32,32,16,16,16,51,51,51,0.00,40.00,0,0,0,0.00
2013-9-19,32,32,32,16,16,16,51,51,51,0.00,40.00,0,0,0,0.00
2013-9-20,32,32,32,16,16,16,51,51,51,0.00,40.00,0,0,0,0.00
2013-9-21,32,32,32,16,16,16,51,51,51,0.00,40.00,0,0,0,0.00
2013-9-22,32,32,32,16,16,16,51,51,51,0.00,40.00,0,0,0,0.00
2013-9-23,32,32,32,16,16,16,51,51,51,0.00,40.00,0,0,0,0.00
2013-9-24,32,32,32,16,16,16,51,51,51,0.00,40.00,0,0,0,0.00
2013-9-25,32,32,32,16,16,16,51,51,51,0.00,40.00,0,0,0,0.00
2013-9-26,32,32,32,16,16,16,51,51,51,0.00,40.00,0,0,0,0.00
2013-9-27,32,32,32,16,16,16,51,51,51,0.00,40.00,0,0,0,0.00
2013-9-28,32,32,32,16,16,16,51,51,51,0.00,40.00,0,0,0,0.00
2013-9-29,32,32,32,16,16,16,51,51,51,0.00,40.00,0,0,0,0.00
2013-9-30,32,32,32,16,16,16,51,51,51,0.00,40.00,0,0,0,0.00
2013-10-3,72,63,53,57,50,36,94,65,44,0.00,40.00,2,0,6,0.00
2013-10-4,64,56,48,43,38,28,58,50,35,0.00,40.00,1,0,4,0.00
2013-10-5,63,58,55,54,41,33,91,53,38,0.00,40.00,2,0,6,0.00
2013-10-6,56,52,48,56,40,28,100,65,46,0.00,40.00,0,0,3,0.12
2013-10-7,72,61,53,69,56,37,100,84,53,0.00,40.00,5,0,21,0.54
2013-10-8,60,51,41,57,34,19,100,55,23,0.00,40.00,4,0,10,0.01
2013-10-9,57,46,37,44,28,21,75,51,28,0.00,40.00,3,0,7,0.00
2013-10-10,58,47,37,36,29,20,55,48,31,0.00,40.00,1,0,3,0.00
2013-10-11,65,52,42,40,32,26,74,48,25,0.00,40.00,1,0,6,0.00
2013-10-12,53,50,45,53,40,21,100,72,29,0.00,40.00,3,0,11,0.00
2013-10-13,56,47,39,52,45,33,100,93,72,0.00,40.00,3,0,7,0.01
2013-10-14,61,47,34,51,43,31,100,88,58,0.00,40.00,2,0,6,0.00
2013-10-15,61,54,48,56,52,48,100,94,79,0.00,40.00,4,0,8,0.00
2013-10-16,58,53,50,54,51,48,100,94,70,0.00,40.00,1,0,4,0.00
2013-10-17,70,57,50,60,46,32,100,73,26,0.00,40.00,4,0,8,0.00
2013-10-18,64,56,45,59,48,34,100,77,52,0.00,40.00,5,1,14,0.03
2013-10-19,64,51,39,49,44,38,99,78,49,0.00,40.00,3,0,7,0.00
2013-10-20,60,50,41,50,41,28,100,71,44,0.00,40.00,7,1,15,0.00
2013-10-21,63,47,34,45,41,34,100,80,46,0.00,40.00,5,0,10,0.00
2013-10-22,60,48,38,53,46,38,100,92,71,0.00,40.00,4,0,14,0.01
2013-10-23,51,43,32,41,37,29,100,82,57,0.00,40.00,3,0,6,0.00
2013-10-24,50,43,35,38,33,29,98,70,47,0.00,40.00,7,1,18,0.00
2013-10-25,47,38,30,36,32,28,100,79,50,0.00,40.00,6,1,14,0.00
2013-10-26,51,40,28,37,31,28,100,72,42,0.00,40.00,6,1,13,0.00
2013-10-27,54,45,36,42,36,29,100,73,48,0.00,40.00,6,1,14,0.00
2013-10-28,56,40,30,38,33,30,100,79,48,0.00,40.00,6,1,14,0.00
2013-10-29,29,28,28,27,26,26,94,91,90,0.00,40.00,0,0,0,0.00
2013-10-30,47,36,28,39,32,26,100,87,68,0.00,40.00,4,0,12,0.00
2013-10-31,57,40,29,57,40,29,100,100,97,0.00,40.00,2,0,10,0.13
2013-11-1,69,62,53,62,57,48,100,85,65,0.00,40.00,8,2,24,0.02
2013-11-2,63,52,41,51,45,34,100,81,48,0.00,40.00,4,0,10,0.00
2013-11-3,49,40,31,47,34,12,100,77,36,0.00,40.00,3,0,10,0.01
2013-11-4,40,32,24,23,20,18,91,63,41,0.00,40.00,4,0,10,0.00
2013-11-5,47,34,23,33,27,16,100,80,29,0.00,40.00,4,0,7,0.00
2013-11-6,58,46,33,48,41,30,100,83,35,0.00,40.00,5,1,10,0.00
2013-11-7,61,51,37,57,49,21,100,92,45,0.00,40.00,5,0,10,0.10
2013-11-8,45,37,29,37,30,20,93,76,41,0.00,40.00,6,1,16,0.00
2013-11-9,41,36,29,31,26,16,84,66,51,0.00,40.00,5,1,15,0.00
2013-11-10,46,40,34,44,37,31,100,92,77,0.00,40.00,5,0,15,0.08
2013-11-11,48,42,37,35,31,27,82,65,44,0.00,40.00,5,1,20,0.00
2013-11-12,44,33,26,35,23,17,92,68,59,0.00,40.00,4,1,12,0.00
2013-11-13,33,27,23,18,16,14,75,63,47,0.00,40.00,6,1,15,0.00
2013-11-14,48,35,27,30,25,16,91,67,48,0.00,40.00,7,1,12,0.00
2013-11-15,54,37,27,30,26,20,93,68,29,0.00,40.00,4,0,7,0.00
2013-11-16,57,40,30,36,30,26,96,73,31,0.00,40.00,2,0,6,0.00
2013-11-17,48,40,29,48,40,29,100,99,61,0.00,40.00,0,0,5,0.05
2013-11-18,61,54,47,60,47,36,100,81,52,0.00,40.00,6,1,14,0.21
2013-11-19,45,40,36,33,26,20,66,58,49,0.00,40.00,6,2,20,0.00
2013-11-24,20,19,18,2,-1,-10,47,42,26,0.00,40.00,6,4,26,0.00
2013-11-25,29,22,16,15,3,-3,70,44,26,0.00,40.00,6,1,16,0.00
2013-11-26,34,30,27,32,25,15,100,79,59,0.00,40.00,5,0,9,0.07
2013-11-27,59,45,31,59,45,31,100,99,69,0.00,40.00,9,2,19,1.93
2013-11-28,35,28,21,32,18,2,91,64,36,0.00,40.00,10,3,23,0.00
2013-11-29,30,22,15,16,11,-2,90,63,32,0.00,40.00,5,1,11,0.00
2013-11-30,30,21,10,23,15,8,96,79,48,0.00,40.00,4,0,7,0.00
2013-12-1,35,32,27,35,31,23,100,96,67,0.00,40.00,2,0,6,0.17
2013-12-2,37,35,33,37,35,33,100,100,93,0.00,40.00,3,0,8,0.01
2013-12-3,45,35,30,34,21,13,100,59,37,0.00,40.00,3,0,8,0.00
2013-12-4,38,31,27,16,13,10,52,45,36,0.00,40.00,4,0,13,0.00
2013-12-5,38,33,26,38,25,10,100,73,49,0.00,40.00,0,0,3,0.03
2013-12-6,45,40,32,44,37,27,100,89,52,0.00,40.00,5,0,11,0.09
2013-12-7,36,30,23,34,27,10,100,88,41,0.00,40.00,5,1,13,0.03
2013-12-8,28,27,26,22,18,15,85,71,60,0.00,40.00,3,0,7,0.00
2013-12-9,31,28,24,31,27,19,100,96,73,0.00,40.00,2,0,6,0.00
2013-12-10,32,29,21,32,28,15,100,98,69,0.00,40.00,2,0,9,0.00
2013-12-11,31,22,14,20,18,14,100,84,57,0.00,40.00,5,1,11,0.00
2013-12-12,23,16,10,20,9,-7,99,77,28,0.00,40.00,4,1,10,0.00
2013-12-13,24,16,8,20,10,1,92,79,51,0.00,40.00,6,1,11,0.00
2013-12-14,14,10,5,12,3,-2,99,74,49,0.00,40.00,4,1,8,0.00
2013-12-15,26,18,12,26,18,7,100,99,65,0.00,40.00,8,2,17,0.00
2013-12-16,28,18,7,18,11,-7,100,76,26,0.00,40.00,7,2,18,0.00
2013-12-17,16,8,-6,14,4,-9,100,86,33,0.00,40.00,4,1,7,0.00
2013-12-18,33,23,14,25,20,14,100,88,48,0.00,40.00,3,0,11,0.00
2013-12-19,38,29,23,26,21,7,92,74,43,0.00,40.00,6,1,14,0.02
2013-12-20,42,33,27,34,30,11,100,91,48,0.00,40.00,1,0,5,0.36
2013-12-21,53,38,31,44,36,23,100,95,70,0.00,40.00,3,0,9,0.15
2013-12-22,38,32,29,38,32,23,100,99,75,0.00,40.00,5,1,10,0.25
2013-12-23,35,31,28,35,31,23,100,100,73,0.00,40.00,3,0,6,0.38
2013-12-24,34,29,22,34,24,13,100,80,60,0.00,40.00,5,1,15,0.00
2013-12-25,22,15,8,14,7,-2,91,70,34,0.00,40.00,6,2,19,0.00
2013-12-26,26,18,12,26,18,10,100,95,87,0.00,40.00,0,0,0,0.00
2013-12-27,31,21,12,25,18,2,100,91,50,0.00,40.00,4,0,10,0.00
2013-12-28,42,29,15,33,26,15,100,88,62,0.00,40.00,5,1,12,0.15
2013-12-29,37,31,26,33,30,22,100,95,53,0.00,40.00,4,0,9,0.91
2013-12-30,39,29,12,37,24,-1,100,82,42,0.00,40.00,6,2,15,0.00
2013-12-31,20,12,5,13,4,-3,97,70,42,0.00,40.00,3,0,6,0.00
2014-1-1,24,16,10,12,9,7,96,77,51,0.00,40.00,7,1,19,0.00
2014-1-2,14,5,-3,13,4,-4,98,94,85,0.00,40.00,7,3,16,0.00